Time;durP1;ratioP1;P1;durP2;ratioP2;P2;SDS_P1;SDS_P2;PMS_P1;PMS_P2;Temp;Humidity;BMP_temperature;BMP_pressure;BME280_temperature;BME280_humidity;BME280_pressure;Samples;Min_cycle;Max_cycle;Signal;HPM_P1;HPM_P2
2022/08/31 00:05:42;;;;;;;;;;;26.90;78.60;;;;;;5001343;28;19952;-62
2022/08/31 00:08:09;;;;;;;;;;;26.90;78.60;;;;;;5017743;28;19952;-61
2022/08/31 00:10:39;;;;;;;;;;;26.90;78.60;;;;;;5017697;28;19934;-62
2022/08/31 00:13:09;;;;;;;;;;;26.90;78.60;;;;;;5013806;28;19936;-61
2022/08/31 00:15:36;;;;;;;;;;;26.90;78.60;;;;;;5017655;28;20317;-62
2022/08/31 00:18:04;;;;;;;;;;;26.90;78.70;;;;;;5010179;28;20385;-60
2022/08/31 00:20:31;;;;;;;;;;;26.90;78.70;;;;;;4995992;28;19926;-62
2022/08/31 00:23:02;;;;;;;;;;;26.90;78.70;;;;;;5019720;28;20392;-62
2022/08/31 00:25:29;;;;;;;;;;;26.90;78.70;;;;;;5015389;28;19929;-62
2022/08/31 00:27:56;;;;;;;;;;;26.90;78.70;;;;;;5019384;28;20399;-61
2022/08/31 00:30:24;;;;;;;;;;;26.90;78.70;;;;;;5006954;28;19933;-62
2022/08/31 00:32:51;;;;;;;;;;;26.90;78.70;;;;;;5020273;28;20117;-61
2022/08/31 00:35:18;;;;;;;;;;;26.90;78.70;;;;;;5010756;28;20348;-60
2022/08/31 00:37:46;;;;;;;;;;;26.90;78.70;;;;;;5013104;28;19947;-59
2022/08/31 00:40:13;;;;;;;;;;;26.90;78.70;;;;;;5000950;28;19930;-60
2022/08/31 00:42:40;;;;;;;;;;;26.90;78.70;;;;;;5009689;28;20313;-60
2022/08/31 00:45:08;;;;;;;;;;;26.90;78.70;;;;;;5017058;28;19936;-56
2022/08/31 00:47:35;;;;;;;;;;;26.90;79.30;;;;;;5018468;28;20275;-60
2022/08/31 00:50:05;;;;;;;;;;;26.90;78.80;;;;;;5017650;28;19934;-61
2022/08/31 00:52:37;;;;;;;;;;;26.90;78.80;;;;;;5010392;28;19940;-58
2022/08/31 00:55:12;;;;;;;;;;;26.90;78.70;;;;;;5012968;28;19936;-61
2022/08/31 00:57:41;;;;;;;;;;;26.90;78.70;;;;;;5018019;28;19984;-61
2022/08/31 01:00:11;;;;;;;;;;;26.90;78.70;;;;;;5018663;28;19929;-62
2022/08/31 01:02:40;;;;;;;;;;;26.90;79.40;;;;;;5013780;28;20316;-58
2022/08/31 01:05:08;;;;;;;;;;;26.90;78.80;;;;;;5013625;28;19932;-56
2022/08/31 01:07:36;;;;;;;;;;;26.90;78.80;;;;;;5005110;28;19929;-61
2022/08/31 01:10:04;;;;;;;;;;;26.90;78.80;;;;;;5020255;28;19929;-61
2022/08/31 01:12:31;;;;;;;;;;;26.90;78.80;;;;;;5012689;28;19929;-58
2022/08/31 01:15:01;;;;;;;;;;;26.90;78.80;;;;;;5016537;28;19929;-61
2022/08/31 01:17:30;;;;;;;;;;;26.90;78.80;;;;;;5016525;28;19930;-60
2022/08/31 01:20:03;;;;;;;;;;;26.90;78.80;;;;;;5009499;28;19930;-60
2022/08/31 01:22:49;;;;;;;;;;;26.90;78.80;;;;;;5010440;28;19929;-60
2022/08/31 01:25:18;;;;;;;;;;;26.90;78.80;;;;;;5011483;28;19930;-60
2022/08/31 01:27:46;;;;;;;;;;;26.90;78.80;;;;;;5009288;28;19925;-61
2022/08/31 01:30:19;;;;;;;;;;;26.90;78.80;;;;;;5002938;28;19933;-60
2022/08/31 01:32:47;;;;;;;;;;;26.90;78.80;;;;;;5013350;28;19929;-61
2022/08/31 01:35:14;;;;;;;;;;;26.80;78.80;;;;;;5005467;28;19933;-58
2022/08/31 01:37:43;;;;;;;;;;;26.80;78.80;;;;;;5010390;28;19929;-60
2022/08/31 01:40:11;;;;;;;;;;;26.90;78.90;;;;;;5016996;28;19937;-60
2022/08/31 01:42:38;;;;;;;;;;;26.80;78.80;;;;;;5008458;28;20290;-61
2022/08/31 01:45:08;;;;;;;;;;;26.80;78.80;;;;;;5005856;28;19936;-59
2022/08/31 01:47:36;;;;;;;;;;;26.80;78.80;;;;;;4993255;28;19937;-61
2022/08/31 01:50:04;;;;;;;;;;;26.80;78.80;;;;;;5016411;28;19940;-60
2022/08/31 01:52:33;;;;;;;;;;;26.80;78.80;;;;;;5008760;28;20160;-62
2022/08/31 01:55:02;;;;;;;;;;;26.80;78.80;;;;;;5011452;28;19929;-60
2022/08/31 01:57:29;;;;;;;;;;;26.80;78.80;;;;;;4992520;28;19934;-60
2022/08/31 02:00:18;;;;;;;;;;;26.80;78.80;;;;;;5014857;28;19936;-58
2022/08/31 02:02:46;;;;;;;;;;;26.80;78.90;;;;;;5020962;28;19934;-61
2022/08/31 02:05:14;;;;;;;;;;;26.80;78.80;;;;;;4996236;28;20317;-60
2022/08/31 02:07:44;;;;;;;;;;;26.80;79.40;;;;;;5014563;28;19969;-61
2022/08/31 02:10:11;;;;;;;;;;;26.80;78.90;;;;;;5011673;28;19932;-60
2022/08/31 02:12:39;;;;;;;;;;;26.80;78.80;;;;;;5015690;28;20634;-61
2022/08/31 02:15:08;;;;;;;;;;;26.80;78.80;;;;;;5019384;28;19930;-62
2022/08/31 02:17:35;;;;;;;;;;;26.80;78.90;;;;;;5009275;28;20440;-59
2022/08/31 02:20:06;;;;;;;;;;;26.80;78.80;;;;;;5013256;28;19940;-59
2022/08/31 02:22:33;;;;;;;;;;;26.80;78.90;;;;;;5002616;28;19936;-59
2022/08/31 02:25:01;;;;;;;;;;;26.80;78.90;;;;;;5015051;28;19935;-60
2022/08/31 02:27:29;;;;;;;;;;;26.80;78.90;;;;;;5024145;28;20297;-61
2022/08/31 02:29:56;;;;;;;;;;;26.80;78.90;;;;;;5018932;28;20408;-59
2022/08/31 02:32:24;;;;;;;;;;;26.80;78.90;;;;;;5013176;28;19933;-55
2022/08/31 02:34:51;;;;;;;;;;;26.80;78.90;;;;;;5007781;28;20337;-61
2022/08/31 02:37:19;;;;;;;;;;;26.80;78.90;;;;;;5013880;28;19930;-59
2022/08/31 02:39:47;;;;;;;;;;;26.80;78.90;;;;;;5021378;28;19933;-63
2022/08/31 02:42:17;;;;;;;;;;;26.80;78.90;;;;;;5015047;28;20009;-61
2022/08/31 02:44:45;;;;;;;;;;;26.80;78.90;;;;;;5003822;28;20416;-60
2022/08/31 02:47:12;;;;;;;;;;;26.70;78.80;;;;;;5007643;28;19933;-63
2022/08/31 02:49:54;;;;;;;;;;;26.70;78.90;;;;;;5016325;28;19933;-59
2022/08/31 02:52:22;;;;;;;;;;;26.70;78.90;;;;;;5012614;28;19925;-60
2022/08/31 02:54:50;;;;;;;;;;;26.80;79.00;;;;;;5017698;28;19930;-61
2022/08/31 02:57:17;;;;;;;;;;;26.80;78.90;;;;;;5014665;28;19929;-60
2022/08/31 02:59:44;;;;;;;;;;;26.80;79.00;;;;;;5016754;28;20347;-62
2022/08/31 03:02:12;;;;;;;;;;;26.80;79.00;;;;;;5019723;28;19929;-61
2022/08/31 03:04:40;;;;;;;;;;;26.70;78.90;;;;;;5008462;28;19930;-61
2022/08/31 03:07:08;;;;;;;;;;;26.70;78.90;;;;;;5012324;28;19928;-60
2022/08/31 03:09:37;;;;;;;;;;;26.70;78.90;;;;;;5016968;28;20408;-60
2022/08/31 03:12:04;;;;;;;;;;;26.70;78.90;;;;;;5019774;28;19934;-57
2022/08/31 03:14:31;;;;;;;;;;;26.70;79.00;;;;;;5010482;28;19929;-59
2022/08/31 03:16:59;;;;;;;;;;;26.70;78.90;;;;;;5011729;28;19934;-61
2022/08/31 03:19:26;;;;;;;;;;;26.70;78.90;;;;;;4996245;28;19936;-61
2022/08/31 03:21:53;;;;;;;;;;;26.70;78.90;;;;;;5017119;28;19925;-60
2022/08/31 03:24:23;;;;;;;;;;;26.70;79.00;;;;;;5011090;28;19930;-59
2022/08/31 03:26:54;;;;;;;;;;;26.70;79.00;;;;;;5007518;28;19925;-62
2022/08/31 03:29:21;;;;;;;;;;;26.70;79.00;;;;;;5011492;28;19930;-61
2022/08/31 03:31:54;;;;;;;;;;;26.70;79.00;;;;;;5016330;28;19930;-60
2022/08/31 03:34:22;;;;;;;;;;;26.70;79.00;;;;;;5018883;28;19930;-61
2022/08/31 03:36:49;;;;;;;;;;;26.70;79.00;;;;;;5021039;28;20369;-62
2022/08/31 03:39:17;;;;;;;;;;;26.70;79.00;;;;;;5018282;28;20309;-58
2022/08/31 03:41:44;;;;;;;;;;;26.70;79.00;;;;;;5006426;28;19932;-57
2022/08/31 03:44:11;;;;;;;;;;;26.70;79.00;;;;;;5004811;28;19936;-60
2022/08/31 03:46:44;;;;;;;;;;;26.70;79.00;;;;;;5015507;28;19930;-59
2022/08/31 03:49:12;;;;;;;;;;;26.70;79.00;;;;;;5014008;28;20261;-61
2022/08/31 03:51:48;;;;;;;;;;;26.70;79.00;;;;;;5019222;28;19925;-60
2022/08/31 03:54:18;;;;;;;;;;;26.70;79.00;;;;;;5015306;28;19933;-61
2022/08/31 03:56:46;;;;;;;;;;;26.70;79.60;;;;;;5016985;28;20393;-62
2022/08/31 03:59:14;;;;;;;;;;;26.70;79.00;;;;;;5018462;28;19936;-60
2022/08/31 04:02:01;;;;;;;;;;;26.70;79.00;;;;;;5017942;28;19968;-61
2022/08/31 04:04:51;;;;;;;;;;;26.60;79.00;;;;;;5008694;28;19925;-60
2022/08/31 04:07:44;;;;;;;;;;;26.70;79.10;;;;;;5000064;28;19929;-60
2022/08/31 04:10:30;;;;;;;;;;;26.60;79.00;;;;;;5026809;28;19930;-58
2022/08/31 04:13:23;;;;;;;;;;;26.60;79.00;;;;;;5015076;28;19930;-60
2022/08/31 04:16:16;;;;;;;;;;;26.60;79.00;;;;;;5013523;28;19926;-63
2022/08/31 04:19:07;;;;;;;;;;;26.60;79.00;;;;;;5013274;28;19929;-61
2022/08/31 04:21:46;;;;;;;;;;;26.70;79.10;;;;;;5010001;28;19930;-63
2022/08/31 04:24:14;;;;;;;;;;;26.60;79.00;;;;;;5014879;28;20401;-60
2022/08/31 04:26:41;;;;;;;;;;;26.60;79.00;;;;;;5003647;28;19929;-61
2022/08/31 04:29:09;;;;;;;;;;;26.60;79.10;;;;;;5019145;28;19952;-62
2022/08/31 04:31:40;;;;;;;;;;;26.60;79.00;;;;;;5020842;28;19930;-60
2022/08/31 04:34:08;;;;;;;;;;;26.60;79.00;;;;;;5015781;28;19937;-59
2022/08/31 04:36:36;;;;;;;;;;;26.70;79.10;;;;;;5021635;28;19933;-61
2022/08/31 04:39:03;;;;;;;;;;;26.60;79.00;;;;;;5015319;28;20459;-62
2022/08/31 04:41:31;;;;;;;;;;;26.60;79.00;;;;;;5016217;28;19929;-60
2022/08/31 04:43:59;;;;;;;;;;;26.60;79.00;;;;;;5015133;28;19929;-61
2022/08/31 04:46:29;;;;;;;;;;;26.60;79.00;;;;;;4999464;28;19933;-59
2022/08/31 04:48:56;;;;;;;;;;;26.60;79.00;;;;;;5004059;28;20329;-60
2022/08/31 04:51:25;;;;;;;;;;;26.60;79.00;;;;;;5000471;28;19937;-60
2022/08/31 04:53:53;;;;;;;;;;;26.60;79.00;;;;;;5008568;28;19936;-61
2022/08/31 04:56:22;;;;;;;;;;;26.60;79.00;;;;;;5021146;28;19929;-59
2022/08/31 04:58:51;;;;;;;;;;;26.60;79.10;;;;;;5009300;28;19926;-60
2022/08/31 05:01:20;;;;;;;;;;;26.60;79.10;;;;;;4986262;28;19952;-59
2022/08/31 05:03:57;;;;;;;;;;;26.60;79.00;;;;;;5011601;28;19936;-59
2022/08/31 05:06:29;;;;;;;;;;;26.60;79.00;;;;;;5016391;28;19929;-61
2022/08/31 05:08:58;;;;;;;;;;;26.60;79.00;;;;;;5006752;28;19930;-60
2022/08/31 05:11:26;;;;;;;;;;;26.60;79.10;;;;;;5005467;28;20325;-60
2022/08/31 05:13:55;;;;;;;;;;;26.60;79.10;;;;;;5007002;28;20309;-55
2022/08/31 05:16:23;;;;;;;;;;;26.60;79.10;;;;;;5003214;28;19929;-61
2022/08/31 05:18:51;;;;;;;;;;;26.60;79.10;;;;;;5013177;28;20337;-62
2022/08/31 05:21:27;;;;;;;;;;;26.60;79.10;;;;;;5017383;28;19936;-62
2022/08/31 05:23:55;;;;;;;;;;;26.60;79.10;;;;;;5011565;28;20409;-58
2022/08/31 05:26:28;;;;;;;;;;;26.60;79.10;;;;;;5009521;28;20356;-57
2022/08/31 05:28:57;;;;;;;;;;;26.60;79.10;;;;;;5011862;28;20421;-61
2022/08/31 05:31:27;;;;;;;;;;;26.50;79.00;;;;;;5012794;28;19936;-61
2022/08/31 05:33:56;;;;;;;;;;;26.60;79.10;;;;;;5014713;28;19936;-61
2022/08/31 05:36:34;;;;;;;;;;;26.60;79.10;;;;;;5013688;28;19925;-60
2022/08/31 05:39:01;;;;;;;;;;;26.60;79.10;;;;;;5012261;28;19936;-60
2022/08/31 05:41:29;;;;;;;;;;;26.60;79.10;;;;;;5005961;28;19936;-60
2022/08/31 05:43:56;;;;;;;;;;;26.50;79.00;;;;;;5010770;28;20424;-59
2022/08/31 05:46:24;;;;;;;;;;;26.60;79.10;;;;;;5012610;28;20420;-58
2022/08/31 05:48:51;;;;;;;;;;;26.50;79.10;;;;;;5018418;28;19941;-59
2022/08/31 05:51:20;;;;;;;;;;;26.50;79.10;;;;;;5007658;28;20286;-59
2022/08/31 05:53:48;;;;;;;;;;;26.50;79.10;;;;;;5010141;28;20680;-59
2022/08/31 05:56:18;;;;;;;;;;;26.50;79.10;;;;;;5009812;28;19930;-58
2022/08/31 05:58:48;;;;;;;;;;;26.50;79.10;;;;;;5017000;28;19929;-57
2022/08/31 06:01:20;;;;;;;;;;;26.50;79.20;;;;;;5013219;28;19929;-59
2022/08/31 06:04:00;;;;;;;;;;;26.50;79.10;;;;;;5014738;28;19933;-60
2022/08/31 06:06:27;;;;;;;;;;;26.50;79.20;;;;;;5009582;28;19936;-59
2022/08/31 06:08:55;;;;;;;;;;;26.50;79.20;;;;;;5013482;28;19929;-60
2022/08/31 06:11:25;;;;;;;;;;;26.50;79.20;;;;;;5007806;28;19936;-61
2022/08/31 06:13:54;;;;;;;;;;;26.50;79.20;;;;;;5015932;28;20432;-62
2022/08/31 06:16:22;;;;;;;;;;;26.50;79.20;;;;;;5012999;28;19933;-58
2022/08/31 06:18:50;;;;;;;;;;;26.50;79.20;;;;;;5013985;28;20365;-60
2022/08/31 06:21:19;;;;;;;;;;;26.50;79.20;;;;;;5001435;28;19929;-59
2022/08/31 06:23:48;;;;;;;;;;;26.50;79.20;;;;;;5011646;28;19936;-61
2022/08/31 06:26:17;;;;;;;;;;;26.50;79.20;;;;;;5010706;28;19937;-61
2022/08/31 06:28:48;;;;;;;;;;;26.50;79.50;;;;;;5018290;28;19936;-61
2022/08/31 06:31:19;;;;;;;;;;;26.50;79.30;;;;;;5015115;28;20312;-59
2022/08/31 06:33:46;;;;;;;;;;;26.50;79.20;;;;;;5007943;28;19929;-59
2022/08/31 06:36:28;;;;;;;;;;;26.50;79.30;;;;;;5016202;28;20412;-61
2022/08/31 06:38:59;;;;;;;;;;;26.50;79.20;;;;;;5011127;28;20397;-61
2022/08/31 06:41:54;;;;;;;;;;;26.50;79.30;;;;;;5013494;28;19929;-60
2022/08/31 06:44:31;;;;;;;;;;;26.50;79.30;;;;;;5012305;28;20047;-60
2022/08/31 06:47:08;;;;;;;;;;;26.50;79.30;;;;;;5012991;28;19929;-56
2022/08/31 06:49:38;;;;;;;;;;;26.50;79.30;;;;;;5015795;28;19925;-61
2022/08/31 06:52:07;;;;;;;;;;;26.50;79.30;;;;;;5016226;28;19940;-63
2022/08/31 06:54:36;;;;;;;;;;;26.50;79.30;;;;;;5011235;28;19933;-62
2022/08/31 06:57:22;;;;;;;;;;;26.50;79.30;;;;;;5022620;28;19925;-61
2022/08/31 07:00:12;;;;;;;;;;;26.50;79.30;;;;;;5019925;28;19929;-58
2022/08/31 07:02:45;;;;;;;;;;;26.40;79.30;;;;;;5018621;28;19941;-61
2022/08/31 07:05:24;;;;;;;;;;;26.50;79.30;;;;;;5020693;28;19929;-58
2022/08/31 07:07:53;;;;;;;;;;;26.40;79.30;;;;;;5020125;28;19952;-59
2022/08/31 07:10:20;;;;;;;;;;;26.40;79.30;;;;;;5012918;28;20309;-59
2022/08/31 07:12:48;;;;;;;;;;;26.40;79.30;;;;;;5018194;28;19937;-61
2022/08/31 07:15:15;;;;;;;;;;;26.40;79.30;;;;;;5011649;28;19937;-61
2022/08/31 07:17:42;;;;;;;;;;;26.40;79.30;;;;;;5012085;28;19930;-59
2022/08/31 07:20:10;;;;;;;;;;;26.40;79.30;;;;;;5000045;28;19936;-60
2022/08/31 07:22:37;;;;;;;;;;;26.40;79.40;;;;;;5014406;28;19929;-60
2022/08/31 07:25:27;;;;;;;;;;;26.40;79.30;;;;;;5012324;28;19940;-61
2022/08/31 07:27:54;;;;;;;;;;;26.40;79.30;;;;;;5013851;28;19929;-61
2022/08/31 07:30:22;;;;;;;;;;;26.40;79.40;;;;;;5018802;28;20243;-60
2022/08/31 07:32:50;;;;;;;;;;;26.40;79.30;;;;;;5003524;28;19936;-59
2022/08/31 07:35:23;;;;;;;;;;;26.40;79.40;;;;;;5017754;28;19956;-60
2022/08/31 07:43:38;;;;;;;;;;;26.40;79.40;;;;;;5004958;28;19934;-60
2022/08/31 07:46:05;;;;;;;;;;;26.40;79.40;;;;;;5022313;28;19929;-60
2022/08/31 07:48:33;;;;;;;;;;;26.40;79.40;;;;;;5002050;28;19926;-61
2022/08/31 07:51:29;;;;;;;;;;;26.40;79.40;;;;;;5008813;28;20100;-61
2022/08/31 07:54:19;;;;;;;;;;;26.40;79.40;;;;;;5006965;28;19930;-60
2022/08/31 07:57:03;;;;;;;;;;;26.40;79.40;;;;;;5017817;28;19929;-61
2022/08/31 07:59:32;;;;;;;;;;;26.40;79.50;;;;;;5029770;28;19932;-59
2022/08/31 08:02:02;;;;;;;;;;;26.40;79.50;;;;;;5002622;28;20412;-61
2022/08/31 08:04:31;;;;;;;;;;;26.40;79.50;;;;;;5009181;28;20411;-60
2022/08/31 08:07:17;;;;;;;;;;;26.40;79.40;;;;;;5015731;28;20396;-60
2022/08/31 08:10:08;;;;;;;;;;;26.40;79.50;;;;;;5027453;28;19929;-60
2022/08/31 08:13:02;;;;;;;;;;;26.40;79.50;;;;;;5012919;28;19936;-61
2022/08/31 08:15:43;;;;;;;;;;;26.40;80.10;;;;;;5001828;28;19929;-60
2022/08/31 08:18:19;;;;;;;;;;;26.40;79.50;;;;;;5008146;28;19952;-61
2022/08/31 08:20:51;;;;;;;;;;;26.30;79.40;;;;;;5016804;28;19936;-61
2022/08/31 08:23:20;;;;;;;;;;;26.40;79.50;;;;;;5013541;28;20320;-55
2022/08/31 08:26:27;;;;;;;;;;;26.30;79.50;;;;;;4998585;28;19934;-60
2022/08/31 08:29:26;;;;;;;;;;;26.30;79.50;;;;;;4997928;28;20193;-61
2022/08/31 08:31:55;;;;;;;;;;;26.40;79.50;;;;;;5006603;28;19972;-62
2022/08/31 08:34:24;;;;;;;;;;;26.30;79.50;;;;;;5002765;28;19936;-58
2022/08/31 08:36:59;;;;;;;;;;;26.30;79.50;;;;;;5016065;28;19940;-59
2022/08/31 08:39:26;;;;;;;;;;;26.30;80.10;;;;;;5006592;28;20397;-59
2022/08/31 08:42:01;;;;;;;;;;;26.30;79.50;;;;;;5002100;28;19930;-58
2022/08/31 08:44:31;;;;;;;;;;;26.30;79.50;;;;;;5018553;28;19929;-59
2022/08/31 08:47:02;;;;;;;;;;;26.30;79.50;;;;;;5002402;28;20425;-61
2022/08/31 08:49:45;;;;;;;;;;;26.30;79.50;;;;;;5005871;28;19933;-59
2022/08/31 08:52:29;;;;;;;;;;;26.30;79.50;;;;;;5007121;28;19929;-61
2022/08/31 08:55:00;;;;;;;;;;;26.30;79.50;;;;;;5024682;28;20309;-58
2022/08/31 08:57:34;;;;;;;;;;;26.30;79.50;;;;;;5018787;28;19949;-61
2022/08/31 09:00:09;;;;;;;;;;;26.30;79.50;;;;;;5020897;28;19929;-60
2022/08/31 09:02:57;;;;;;;;;;;26.30;79.60;;;;;;5009293;28;19933;-59
2022/08/31 09:06:01;;;;;;;;;;;26.30;79.50;;;;;;5017011;28;19929;-59
2022/08/31 09:08:31;;;;;;;;;;;26.30;79.50;;;;;;5008237;28;19933;-56
2022/08/31 09:11:19;;;;;;;;;;;26.30;79.50;;;;;;5014582;28;19936;-60
2022/08/31 09:13:51;;;;;;;;;;;26.30;79.50;;;;;;5017400;28;19930;-60
2022/08/31 09:16:37;;;;;;;;;;;26.30;79.50;;;;;;5020874;28;19932;-62
2022/08/31 09:19:10;;;;;;;;;;;26.30;79.50;;;;;;5022790;28;19952;-60
2022/08/31 09:21:50;;;;;;;;;;;26.30;79.50;;;;;;5012978;28;20718;-60
2022/08/31 09:24:19;;;;;;;;;;;26.30;79.50;;;;;;5009149;28;19929;-59
2022/08/31 09:27:17;;;;;;;;;;;26.30;79.50;;;;;;5004879;28;20436;-60
2022/08/31 09:29:46;;;;;;;;;;;26.30;79.60;;;;;;5006691;28;20294;-60
2022/08/31 09:32:16;;;;;;;;;;;26.30;79.50;;;;;;5000823;28;19930;-60
2022/08/31 09:34:51;;;;;;;;;;;26.30;79.50;;;;;;5002987;28;19936;-62
2022/08/31 09:37:20;;;;;;;;;;;26.30;79.50;;;;;;5011934;28;19934;-60
2022/08/31 09:39:48;;;;;;;;;;;26.30;79.60;;;;;;4998461;28;19930;-60
2022/08/31 09:42:30;;;;;;;;;;;26.30;79.60;;;;;;5012102;28;20420;-58
2022/08/31 09:45:00;;;;;;;;;;;26.30;79.50;;;;;;5005396;28;19941;-60
2022/08/31 09:47:47;;;;;;;;;;;26.30;79.60;;;;;;5015963;28;19933;-59
2022/08/31 09:50:35;;;;;;;;;;;26.30;79.60;;;;;;5013939;28;19929;-60
2022/08/31 09:56:12;;;;;;;;;;;26.30;79.70;;;;;;5015376;28;19929;-60
2022/08/31 09:58:49;;;;;;;;;;;26.30;79.70;;;;;;5017796;28;19936;-61
2022/08/31 10:01:19;;;;;;;;;;;26.30;79.60;;;;;;5015610;28;19929;-58
2022/08/31 10:03:47;;;;;;;;;;;26.30;79.70;;;;;;5011911;28;19936;-60
2022/08/31 10:06:44;;;;;;;;;;;26.30;79.60;;;;;;5020280;28;19933;-62
2022/08/31 10:09:27;;;;;;;;;;;26.30;79.60;;;;;;5016903;28;19937;-61
2022/08/31 10:11:56;;;;;;;;;;;26.30;79.60;;;;;;5018441;28;19937;-61
2022/08/31 10:14:29;;;;;;;;;;;26.30;79.60;;;;;;5020796;28;20408;-60
2022/08/31 10:17:03;;;;;;;;;;;26.30;79.60;;;;;;5028120;28;19929;-61
2022/08/31 10:19:37;;;;;;;;;;;26.30;80.20;;;;;;5020635;28;20301;-60
2022/08/31 10:22:21;;;;;;;;;;;26.30;79.70;;;;;;5013172;28;20317;-61
2022/08/31 10:24:57;;;;;;;;;;;26.30;79.60;;;;;;5008375;28;19933;-60
2022/08/31 10:27:35;;;;;;;;;;;26.30;79.70;;;;;;5021476;28;19929;-61
2022/08/31 10:30:18;;;;;;;;;;;26.30;79.70;;;;;;5011702;28;19930;-63
2022/08/31 10:32:52;;;;;;;;;;;26.30;79.70;;;;;;5019052;28;20411;-61
2022/08/31 10:35:24;;;;;;;;;;;26.30;79.70;;;;;;5019515;28;20674;-63
2022/08/31 10:37:53;;;;;;;;;;;26.30;79.70;;;;;;5020083;28;19929;-62
2022/08/31 10:40:25;;;;;;;;;;;26.30;79.60;;;;;;5011339;28;19929;-61
2022/08/31 10:43:03;;;;;;;;;;;26.30;79.60;;;;;;5023707;28;20413;-63
2022/08/31 10:45:33;;;;;;;;;;;26.30;79.70;;;;;;5010871;28;19933;-59
2022/08/31 10:48:02;;;;;;;;;;;26.30;79.70;;;;;;5023729;28;19929;-58
2022/08/31 10:50:37;;;;;;;;;;;26.30;79.70;;;;;;5013842;28;19929;-62
2022/08/31 10:53:05;;;;;;;;;;;26.30;79.70;;;;;;5001513;28;20389;-62
2022/08/31 10:55:42;;;;;;;;;;;26.30;79.70;;;;;;5017556;28;19929;-61
2022/08/31 10:58:16;;;;;;;;;;;26.30;79.70;;;;;;5017572;28;19930;-62
2022/08/31 11:00:50;;;;;;;;;;;26.30;79.70;;;;;;5011338;28;19929;-59
2022/08/31 11:03:21;;;;;;;;;;;26.30;79.70;;;;;;5008973;28;19929;-62
2022/08/31 11:05:59;;;;;;;;;;;26.30;79.70;;;;;;5016775;28;19933;-63
2022/08/31 11:08:52;;;;;;;;;;;26.30;79.70;;;;;;5005514;28;19929;-62
2022/08/31 11:11:40;;;;;;;;;;;26.30;79.70;;;;;;5008848;28;19936;-62
2022/08/31 11:14:28;;;;;;;;;;;26.30;79.70;;;;;;5015608;28;19929;-63
2022/08/31 11:17:14;;;;;;;;;;;26.30;79.80;;;;;;5008693;28;20410;-62
2022/08/31 11:19:49;;;;;;;;;;;26.30;79.70;;;;;;5022150;28;20461;-61
2022/08/31 11:22:33;;;;;;;;;;;26.30;79.70;;;;;;5009109;28;19930;-65
2022/08/31 11:25:06;;;;;;;;;;;26.30;79.70;;;;;;5025154;28;19929;-61
2022/08/31 11:27:47;;;;;;;;;;;26.30;79.80;;;;;;5010616;28;19936;-63
2022/08/31 11:30:15;;;;;;;;;;;26.30;79.80;;;;;;5012166;28;19956;-62
2022/08/31 11:32:45;;;;;;;;;;;26.30;79.80;;;;;;5023118;28;19929;-62
2022/08/31 11:35:14;;;;;;;;;;;26.30;79.70;;;;;;5013548;28;19937;-64
2022/08/31 11:37:57;;;;;;;;;;;26.30;79.80;;;;;;5009560;28;19925;-64
2022/08/31 11:40:40;;;;;;;;;;;26.30;79.80;;;;;;5012769;28;19932;-61
2022/08/31 11:43:15;;;;;;;;;;;26.30;79.70;;;;;;5004099;28;19946;-62
2022/08/31 11:45:42;;;;;;;;;;;26.30;79.80;;;;;;5020552;28;19964;-61
2022/08/31 11:48:36;;;;;;;;;;;26.30;79.80;;;;;;5013126;28;19925;-62
2022/08/31 11:51:06;;;;;;;;;;;26.30;79.80;;;;;;5004957;28;19942;-60
2022/08/31 11:53:35;;;;;;;;;;;26.30;79.80;;;;;;5004578;28;19929;-62
2022/08/31 11:56:03;;;;;;;;;;;26.30;79.80;;;;;;5017140;28;19930;-61
2022/08/31 11:58:33;;;;;;;;;;;26.30;79.80;;;;;;5011257;28;19929;-60
2022/08/31 12:01:08;;;;;;;;;;;26.30;79.80;;;;;;5019415;28;19940;-59
2022/08/31 12:03:37;;;;;;;;;;;26.30;79.80;;;;;;5009688;28;19930;-62
2022/08/31 12:06:07;;;;;;;;;;;26.30;79.90;;;;;;5016604;28;19936;-61
2022/08/31 12:08:45;;;;;;;;;;;26.30;79.90;;;;;;5012034;28;19925;-61
2022/08/31 12:11:21;;;;;;;;;;;26.30;79.90;;;;;;5010843;28;19936;-61
2022/08/31 12:13:54;;;;;;;;;;;26.30;79.80;;;;;;5012595;28;19936;-59
2022/08/31 12:16:35;;;;;;;;;;;26.30;79.90;;;;;;5012318;28;19926;-58
2022/08/31 12:19:11;;;;;;;;;;;26.30;79.80;;;;;;5015295;28;20484;-59
2022/08/31 12:24:42;;;;;;;;;;;26.30;79.90;;;;;;4997954;28;19929;-60
2022/08/31 12:27:21;;;;;;;;;;;26.30;79.90;;;;;;5015903;28;19928;-59
2022/08/31 12:29:48;;;;;;;;;;;26.30;79.90;;;;;;5009592;28;20511;-60
2022/08/31 12:32:26;;;;;;;;;;;26.30;79.90;;;;;;5015240;28;19929;-61
2022/08/31 12:34:56;;;;;;;;;;;26.30;79.90;;;;;;5011258;28;20481;-58
2022/08/31 12:37:28;;;;;;;;;;;26.30;79.90;;;;;;5013697;28;19959;-61
2022/08/31 12:40:10;;;;;;;;;;;26.30;79.90;;;;;;5005124;28;19936;-62
2022/08/31 12:42:47;;;;;;;;;;;26.30;79.90;;;;;;5012448;28;19929;-60
2022/08/31 12:45:15;;;;;;;;;;;26.30;79.90;;;;;;5011066;28;19936;-62
2022/08/31 12:47:43;;;;;;;;;;;26.30;79.90;;;;;;5017469;28;20021;-59
2022/08/31 12:50:10;;;;;;;;;;;26.30;79.90;;;;;;5016149;28;19930;-56
2022/08/31 12:52:44;;;;;;;;;;;26.30;80.00;;;;;;5024170;28;19934;-61
2022/08/31 12:55:22;;;;;;;;;;;26.30;80.00;;;;;;5018838;28;19936;-62
2022/08/31 12:57:49;;;;;;;;;;;26.30;80.00;;;;;;5012459;28;19929;-58
2022/08/31 13:00:19;;;;;;;;;;;26.30;80.00;;;;;;5014070;28;19929;-62
2022/08/31 13:02:50;;;;;;;;;;;26.30;80.00;;;;;;5016748;28;19929;-60
2022/08/31 13:05:20;;;;;;;;;;;26.30;80.00;;;;;;5019412;28;20676;-62
2022/08/31 13:07:47;;;;;;;;;;;26.30;80.00;;;;;;5009137;28;19940;-63
2022/08/31 13:10:24;;;;;;;;;;;26.30;79.90;;;;;;5015311;28;19929;-60
2022/08/31 13:12:53;;;;;;;;;;;26.30;79.90;;;;;;5011051;28;19934;-61
2022/08/31 13:15:24;;;;;;;;;;;26.30;80.00;;;;;;5010693;28;19929;-61
2022/08/31 13:17:52;;;;;;;;;;;26.30;80.00;;;;;;5015908;28;19947;-61
2022/08/31 13:20:20;;;;;;;;;;;26.30;80.00;;;;;;5003552;28;19933;-59
2022/08/31 13:22:55;;;;;;;;;;;26.30;80.00;;;;;;5008970;28;19937;-60
2022/08/31 13:25:34;;;;;;;;;;;26.30;80.00;;;;;;5013580;28;19929;-59
2022/08/31 13:28:02;;;;;;;;;;;26.30;80.00;;;;;;5004925;28;19937;-61
2022/08/31 13:30:33;;;;;;;;;;;26.30;80.00;;;;;;5008905;28;19972;-61
2022/08/31 13:33:16;;;;;;;;;;;26.30;80.00;;;;;;5016997;28;19928;-61
2022/08/31 13:35:48;;;;;;;;;;;26.30;80.00;;;;;;5000809;28;19944;-61
2022/08/31 13:38:16;;;;;;;;;;;26.30;80.00;;;;;;4994951;28;19940;-61
2022/08/31 13:40:49;;;;;;;;;;;26.30;80.50;;;;;;5003220;28;20004;-61
2022/08/31 13:43:18;;;;;;;;;;;26.30;79.90;;;;;;5008853;28;19936;-60
2022/08/31 13:45:55;;;;;;;;;;;26.30;80.00;;;;;;5009379;28;20389;-60
2022/08/31 13:48:30;;;;;;;;;;;26.40;80.00;;;;;;5013394;28;19936;-62
2022/08/31 13:51:00;;;;;;;;;;;26.40;80.00;;;;;;5013401;28;19936;-60
2022/08/31 13:53:35;;;;;;;;;;;26.50;79.90;;;;;;5011423;28;19933;-62
2022/08/31 13:56:53;;;;;;;;;;;26.60;79.80;;;;;;5027430;28;19936;-62
2022/08/31 13:59:22;;;;;;;;;;;26.60;79.50;;;;;;5004214;28;20421;-62
2022/08/31 14:01:51;;;;;;;;;;;26.70;79.40;;;;;;5017472;28;19929;-61
2022/08/31 14:04:47;;;;;;;;;;;26.70;79.20;;;;;;5009667;28;19955;-61
2022/08/31 14:07:20;;;;;;;;;;;26.80;79.10;;;;;;5013541;28;20120;-61
2022/08/31 14:09:49;;;;;;;;;;;26.90;79.00;;;;;;5022734;28;19929;-62
2022/08/31 14:12:33;;;;;;;;;;;26.90;79.00;;;;;;5014840;28;19930;-60
2022/08/31 14:15:16;;;;;;;;;;;26.90;78.80;;;;;;5010575;28;20385;-60
2022/08/31 14:17:57;;;;;;;;;;;27.00;78.80;;;;;;5012867;28;19929;-64
2022/08/31 14:20:47;;;;;;;;;;;27.00;78.80;;;;;;5010508;28;19929;-59
2022/08/31 14:23:41;;;;;;;;;;;27.10;78.70;;;;;;5008702;28;19925;-57
2022/08/31 14:26:11;;;;;;;;;;;27.10;78.60;;;;;;5020395;28;20421;-60
2022/08/31 14:28:42;;;;;;;;;;;27.10;78.50;;;;;;5014553;28;19936;-58
2022/08/31 14:31:21;;;;;;;;;;;27.10;78.60;;;;;;5024214;28;20405;-59
2022/08/31 14:34:09;;;;;;;;;;;27.10;78.60;;;;;;5012578;28;19926;-61
2022/08/31 14:36:44;;;;;;;;;;;27.00;78.80;;;;;;5002834;28;19929;-61
2022/08/31 14:39:12;;;;;;;;;;;27.00;78.80;;;;;;5017242;28;19930;-58
2022/08/31 14:41:39;;;;;;;;;;;27.10;78.80;;;;;;5013866;28;19929;-63
2022/08/31 14:44:08;;;;;;;;;;;27.10;78.80;;;;;;5017430;28;19925;-60
2022/08/31 14:46:36;;;;;;;;;;;27.00;78.70;;;;;;5009612;28;19945;-61
2022/08/31 14:49:05;;;;;;;;;;;27.00;78.80;;;;;;5015581;28;19930;-60
2022/08/31 14:51:34;;;;;;;;;;;27.00;78.90;;;;;;5006359;28;20405;-63
2022/08/31 14:54:02;;;;;;;;;;;26.90;78.90;;;;;;5022739;28;19925;-59
2022/08/31 14:56:31;;;;;;;;;;;26.90;79.00;;;;;;5020034;28;19929;-59
2022/08/31 14:59:03;;;;;;;;;;;26.90;79.20;;;;;;5026292;28;19929;-59
2022/08/31 15:01:34;;;;;;;;;;;26.80;79.10;;;;;;5003701;28;20413;-62
2022/08/31 15:04:02;;;;;;;;;;;26.80;79.20;;;;;;5004383;28;19937;-59
2022/08/31 15:06:31;;;;;;;;;;;26.80;79.30;;;;;;5012829;28;19936;-60